Wetterdaten: Woche 19.12.16 - 25.12.16 (KW51)
Datum Zeit Temp. A. Feuchte A. Luftdruck Regen Wind Richtung Taupunkt Windchill Windben
19.12.2016 00:00 0,5 C 97 % 1030,5 hPa 0,0 l/m 1,0 km/h (0 Bft) W 0,1 C 0,5 C 3,3 km/h (1 Bft)
19.12.2016 01:00 0,4 C 97 % 1029,9 hPa 0,3 l/m 1,9 km/h (1 Bft) W-NW -0,0 C 0,4 C 5,9 km/h (2 Bft)
19.12.2016 02:00 0,4 C 97 % 1029,4 hPa 0,0 l/m 2,2 km/h (1 Bft) SW -0,0 C 0,4 C 6,7 km/h (2 Bft)
19.12.2016 03:00 0,3 C 97 % 1028,8 hPa 0,0 l/m 2,3 km/h (1 Bft) NW -0,1 C 0,3 C 7,2 km/h (2 Bft)
19.12.2016 04:00 0,2 C 97 % 1028,0 hPa 0,0 l/m 2,7 km/h (1 Bft) W-SW -0,3 C 0,2 C 8,2 km/h (2 Bft)
19.12.2016 05:00 0,2 C 96 % 1027,3 hPa 0,0 l/m 3,2 km/h (1 Bft) S-SW -0,4 C 0,2 C 7,8 km/h (2 Bft)
19.12.2016 06:00 0,2 C 95 % 1027,0 hPa 0,0 l/m 2,8 km/h (1 Bft) W -0,4 C 0,2 C 7,0 km/h (2 Bft)
19.12.2016 07:00 0,2 C 95 % 1026,5 hPa 0,0 l/m 3,1 km/h (1 Bft) W-NW -0,5 C 0,2 C 8,2 km/h (2 Bft)
19.12.2016 08:00 0,1 C 94 % 1026,2 hPa 0,0 l/m 3,7 km/h (1 Bft) W -0,7 C 0,1 C 11,4 km/h (2 Bft)
19.12.2016 09:00 0,0 C 93 % 1026,2 hPa 0,0 l/m 3,3 km/h (1 Bft) SW -1,0 C 0,0 C 9,1 km/h (2 Bft)
19.12.2016 10:00 0,1 C 92 % 1026,0 hPa 0,0 l/m 2,9 km/h (1 Bft) NW -1,0 C 0,1 C 9,5 km/h (2 Bft)
19.12.2016 11:00 0,4 C 92 % 1025,8 hPa 0,0 l/m 2,5 km/h (1 Bft) S-SW -0,7 C 0,4 C 6,7 km/h (2 Bft)
19.12.2016 12:00 0,7 C 93 % 1025,6 hPa 0,0 l/m 1,7 km/h (1 Bft) SW -0,3 C 0,7 C 4,6 km/h (1 Bft)
19.12.2016 13:00 1,1 C 90 % 1025,1 hPa 0,0 l/m 3,3 km/h (1 Bft) NW -0,3 C 1,1 C 9,1 km/h (2 Bft)
19.12.2016 14:00 1,3 C 88 % 1025,0 hPa 0,0 l/m 3,1 km/h (1 Bft) NW -0,5 C 1,3 C 9,7 km/h (2 Bft)
19.12.2016 15:00 1,0 C 89 % 1025,0 hPa 0,0 l/m 2,7 km/h (1 Bft) W-NW -0,6 C 1,0 C 7,9 km/h (2 Bft)
19.12.2016 16:00 0,6 C 90 % 1025,3 hPa 0,0 l/m 2,1 km/h (1 Bft) W -0,8 C 0,6 C 6,6 km/h (2 Bft)
19.12.2016 17:00 0,5 C 90 % 1025,4 hPa 0,0 l/m 2,0 km/h (1 Bft) SW -1,0 C 0,5 C 5,1 km/h (1 Bft)
19.12.2016 18:00 0,4 C 90 % 1025,4 hPa 0,0 l/m 2,2 km/h (1 Bft) SW -1,1 C 0,4 C 6,1 km/h (2 Bft)
19.12.2016 19:00 0,2 C 89 % 1025,7 hPa 0,0 l/m 1,6 km/h (1 Bft) W-NW -1,4 C 0,2 C 5,1 km/h (1 Bft)
19.12.2016 20:00 -0,1 C 90 % 1025,6 hPa 0,0 l/m 1,9 km/h (1 Bft) SW -1,5 C -0,1 C 5,6 km/h (2 Bft)
19.12.2016 21:00 -0,3 C 91 % 1025,7 hPa 0,0 l/m 1,3 km/h (1 Bft) W-NW -1,6 C -0,3 C 4,4 km/h (1 Bft)
19.12.2016 22:00 -0,6 C 92 % 1025,5 hPa 0,0 l/m 2,1 km/h (1 Bft) S-SW -1,8 C -0,6 C 7,2 km/h (2 Bft)
19.12.2016 23:00 -1,0 C 93 % 1025,4 hPa 0,0 l/m 2,1 km/h (1 Bft) W-SW -2,0 C -1,0 C 5,3 km/h (1 Bft)
20.12.2016 00:00 -1,3 C 94 % 1025,5 hPa 0,0 l/m 1,7 km/h (1 Bft) W-NW -2,2 C -1,3 C 4,2 km/h (1 Bft)
20.12.2016 01:00 -1,6 C 95 % 1025,1 hPa 0,0 l/m 2,4 km/h (1 Bft) W-NW -2,3 C -1,6 C 6,4 km/h (2 Bft)
20.12.2016 02:00 -1,8 C 95 % 1024,8 hPa 0,0 l/m 2,5 km/h (1 Bft) W -2,5 C -1,8 C 7,2 km/h (2 Bft)
20.12.2016 03:00 -2,0 C 96 % 1024,3 hPa 0,0 l/m 3,0 km/h (1 Bft) W-NW -2,6 C -2,0 C 8,2 km/h (2 Bft)
20.12.2016 04:00 -2,2 C 96 % 1023,9 hPa 0,0 l/m 2,9 km/h (1 Bft) W-NW -2,7 C -2,2 C 7,4 km/h (2 Bft)
20.12.2016 05:00 -2,2 C 96 % 1023,5 hPa 0,0 l/m 3,3 km/h (1 Bft) W-NW -2,7 C -2,2 C 7,6 km/h (2 Bft)
20.12.2016 06:00 -2,2 C 96 % 1023,1 hPa 0,0 l/m 2,7 km/h (1 Bft) NW -2,7 C -2,2 C 7,0 km/h (2 Bft)
20.12.2016 07:00 -2,2 C 96 % 1022,9 hPa 0,0 l/m 3,2 km/h (1 Bft) W -2,7 C -2,2 C 9,1 km/h (2 Bft)
20.12.2016 08:00 -2,1 C 95 % 1023,0 hPa 0,0 l/m 2,8 km/h (1 Bft) S-SW -2,7 C -2,1 C 8,4 km/h (2 Bft)
20.12.2016 09:00 -2,2 C 95 % 1023,1 hPa 0,0 l/m 2,1 km/h (1 Bft) NW -2,9 C -2,2 C 6,1 km/h (2 Bft)
20.12.2016 10:00 -2,0 C 95 % 1022,9 hPa 0,0 l/m 1,5 km/h (1 Bft) SW -2,8 C -2,0 C 4,5 km/h (1 Bft)
20.12.2016 11:00 -1,7 C 93 % 1022,5 hPa 0,0 l/m 1,2 km/h (1 Bft) N-NO -2,6 C -1,7 C 3,5 km/h (1 Bft)
20.12.2016 12:00 -1,7 C 93 % 1022,1 hPa 0,0 l/m 1,2 km/h (1 Bft) O-NO -2,6 C -1,7 C 2,9 km/h (1 Bft)
20.12.2016 13:00 -0,1 C 89 % 1022,1 hPa 0,0 l/m 2,3 km/h (1 Bft) W-NW -1,6 C -0,1 C 4,9 km/h (1 Bft)
20.12.2016 14:00 0,7 C 87 % 1022,0 hPa 0,0 l/m 1,8 km/h (1 Bft) NW -1,3 C 0,7 C 4,0 km/h (1 Bft)
20.12.2016 15:00 0,1 C 88 % 1022,3 hPa 0,0 l/m 1,0 km/h (0 Bft) W-NW -1,6 C 0,1 C 2,9 km/h (1 Bft)
20.12.2016 16:00 -0,6 C 90 % 1022,7 hPa 0,0 l/m 0,1 km/h (0 Bft) W-NW -1,9 C -0,6 C 0,9 km/h (0 Bft)
20.12.2016 17:00 -1,5 C 93 % 1023,3 hPa 0,0 l/m 0,5 km/h (0 Bft) W-NW -2,4 C -1,5 C 2,0 km/h (1 Bft)
20.12.2016 18:00 -1,8 C 94 % 1023,6 hPa 0,0 l/m 0,2 km/h (0 Bft) N -2,7 C -1,8 C 1,4 km/h (1 Bft)
20.12.2016 19:00 -2,4 C 95 % 1024,3 hPa 0,0 l/m 0,2 km/h (0 Bft) N -3,1 C -2,4 C 1,6 km/h (1 Bft)
20.12.2016 20:00 -2,7 C 95 % 1024,7 hPa 0,0 l/m 0,0 km/h (0 Bft) O-NO -3,3 C -2,7 C 0,4 km/h (0 Bft)
20.12.2016 21:00 -3,0 C 96 % 1025,0 hPa 0,0 l/m 0,1 km/h (0 Bft) O-NO -3,5 C -3,0 C 1,2 km/h (1 Bft)
20.12.2016 22:00 -3,1 C 96 % 1025,3 hPa 0,0 l/m 0,3 km/h (0 Bft) O-NO -3,6 C -3,1 C 1,3 km/h (1 Bft)
20.12.2016 23:00 -2,9 C 96 % 1025,7 hPa 0,0 l/m 0,4 km/h (0 Bft) O-NO -3,4 C -2,9 C 1,7 km/h (1 Bft)
21.12.2016 00:00 -3,3 C 96 % 1025,9 hPa 0,0 l/m 0,1 km/h (0 Bft) O-NO -3,8 C -3,3 C 1,3 km/h (1 Bft)
21.12.2016 01:00 -4,0 C 95 % 1026,9 hPa 0,0 l/m 0,6 km/h (0 Bft) O-SO -4,6 C -4,0 C 2,7 km/h (1 Bft)
21.12.2016 02:00 -4,5 C 96 % 1027,3 hPa 0,0 l/m 0,1 km/h (0 Bft) O-SO -5,1 C -4,5 C 1,2 km/h (1 Bft)
21.12.2016 03:00 -4,9 C 95 % 1027,6 hPa 0,0 l/m 0,4 km/h (0 Bft) O-SO -5,6 C -4,9 C 2,0 km/h (1 Bft)
21.12.2016 04:00 -5,2 C 95 % 1028,2 hPa 0,0 l/m 0,1 km/h (0 Bft) O-SO -5,8 C -5,2 C 0,8 km/h (0 Bft)
21.12.2016 05:00 -5,5 C 96 % 1028,6 hPa 0,0 l/m 0,0 km/h (0 Bft) O-SO -6,1 C -5,5 C 0,0 km/h (0 Bft)
21.12.2016 06:00 -5,6 C 96 % 1029,0 hPa 0,0 l/m 0,1 km/h (0 Bft) O-SO -6,1 C -5,6 C 0,5 km/h (0 Bft)
21.12.2016 07:00 -5,7 C 95 % 1029,6 hPa 0,0 l/m 0,0 km/h (0 Bft) O-SO -6,3 C -5,7 C 0,4 km/h (0 Bft)
21.12.2016 08:00 -5,8 C 96 % 1030,3 hPa 0,0 l/m 0,0 km/h (0 Bft) O-SO -6,4 C -5,8 C 0,3 km/h (0 Bft)
21.12.2016 09:00 -4,4 C 96 % 1031,0 hPa 0,0 l/m 0,2 km/h (0 Bft) O-SO -4,9 C -4,4 C 0,5 km/h (0 Bft)
21.12.2016 10:00 -1,3 C 92 % 1031,3 hPa 0,0 l/m 0,8 km/h (0 Bft) O-SO -2,4 C -1,3 C 2,3 km/h (1 Bft)
21.12.2016 11:00 1,6 C 88 % 1031,1 hPa 0,0 l/m 1,4 km/h (1 Bft) O-SO -0,2 C 1,6 C 2,7 km/h (1 Bft)
21.12.2016 12:00 4,2 C 83 % 1030,8 hPa 0,0 l/m 1,4 km/h (1 Bft) W 1,5 C 4,2 C 2,9 km/h (1 Bft)
21.12.2016 13:00 6,9 C 76 % 1030,3 hPa 0,0 l/m 1,4 km/h (1 Bft) NW 2,9 C 6,9 C 2,9 km/h (1 Bft)
21.12.2016 14:00 8,1 C 71 % 1030,2 hPa 0,0 l/m 0,7 km/h (0 Bft) NW 3,1 C 8,1 C 2,1 km/h (1 Bft)
21.12.2016 15:00 7,4 C 70 % 1030,3 hPa 0,0 l/m 0,0 km/h (0 Bft) NW 2,3 C 7,4 C 0,4 km/h (0 Bft)
21.12.2016 16:00 3,7 C 79 % 1030,7 hPa 0,3 l/m 0,0 km/h (0 Bft) NW 0,4 C 3,7 C 0,0 km/h (0 Bft)
21.12.2016 17:00 -0,3 C 89 % 1031,0 hPa 0,0 l/m 0,0 km/h (0 Bft) NW -1,9 C -0,3 C 0,2 km/h (0 Bft)
21.12.2016 18:00 -1,6 C 92 % 1031,2 hPa 0,0 l/m 0,0 km/h (0 Bft) NW -2,7 C -1,6 C 0,0 km/h (0 Bft)
21.12.2016 19:00 -2,4 C 94 % 1031,6 hPa 0,0 l/m 0,1 km/h (0 Bft) NW -3,2 C -2,4 C 0,3 km/h (0 Bft)
21.12.2016 20:00 -2,6 C 95 % 1031,8 hPa 0,0 l/m 0,1 km/h (0 Bft) NW -3,3 C -2,6 C 0,4 km/h (0 Bft)
21.12.2016 21:00 -3,1 C 95 % 1031,8 hPa 0,0 l/m 0,1 km/h (0 Bft) NW -3,8 C -3,1 C 0,3 km/h (0 Bft)
21.12.2016 22:00 -3,6 C 95 % 1031,9 hPa 0,0 l/m 0,0 km/h (0 Bft) NW -4,2 C -3,6 C 0,3 km/h (0 Bft)
21.12.2016 23:00 -4,1 C 95 % 1031,9 hPa 0,0 l/m 0,0 km/h (0 Bft) NW -4,8 C -4,1 C 0,0 km/h (0 Bft)
22.12.2016 00:00 -4,4 C 96 % 1031,6 hPa 0,0 l/m 0,0 km/h (0 Bft) NW -5,0 C -4,4 C 0,1 km/h (0 Bft)
22.12.2016 01:00 -4,6 C 95 % 1031,2 hPa 0,0 l/m 0,0 km/h (0 Bft) NW -5,3 C -4,6 C 0,1 km/h (0 Bft)
22.12.2016 02:00 -4,7 C 96 % 1031,3 hPa 0,0 l/m 0,0 km/h (0 Bft) NW -5,3 C -4,7 C 0,5 km/h (0 Bft)
22.12.2016 03:00 -4,5 C 96 % 1031,7 hPa 0,0 l/m 0,1 km/h (0 Bft) NW -5,1 C -4,5 C 0,9 km/h (0 Bft)
22.12.2016 04:00 -4,8 C 95 % 1031,9 hPa 0,0 l/m 0,0 km/h (0 Bft) NW -5,4 C -4,8 C 0,5 km/h (0 Bft)
22.12.2016 05:00 -4,4 C 96 % 1031,7 hPa 0,0 l/m 0,3 km/h (0 Bft) O-SO -5,0 C -4,4 C 1,4 km/h (1 Bft)
22.12.2016 06:00 -4,5 C 95 % 1031,8 hPa 0,0 l/m 0,1 km/h (0 Bft) O-SO -5,2 C -4,5 C 1,6 km/h (1 Bft)
22.12.2016 07:00 -4,4 C 96 % 1032,1 hPa 0,0 l/m 0,2 km/h (0 Bft) O-SO -5,0 C -4,4 C 1,1 km/h (0 Bft)
22.12.2016 08:00 -4,4 C 95 % 1032,2 hPa 0,0 l/m 0,2 km/h (0 Bft) O -5,1 C -4,4 C 1,7 km/h (1 Bft)
22.12.2016 09:00 -3,0 C 96 % 1032,3 hPa 0,0 l/m 0,3 km/h (0 Bft) O -3,6 C -3,0 C 1,7 km/h (1 Bft)
22.12.2016 10:00 0,2 C 89 % 1032,5 hPa 0,0 l/m 1,0 km/h (0 Bft) O -1,3 C 0,2 C 2,4 km/h (1 Bft)
22.12.2016 11:00 2,6 C 86 % 1032,2 hPa 0,0 l/m 0,6 km/h (0 Bft) O 0,5 C 2,6 C 1,8 km/h (1 Bft)
22.12.2016 12:00 4,8 C 83 % 1031,9 hPa 0,0 l/m 0,9 km/h (0 Bft) O 2,2 C 4,8 C 2,1 km/h (1 Bft)
22.12.2016 13:00 8,9 C 66 % 1031,5 hPa 0,0 l/m 4,4 km/h (1 Bft) O-NO 2,9 C 8,9 C 11,1 km/h (2 Bft)
22.12.2016 14:00 10,1 C 58 % 1031,5 hPa 0,0 l/m 4,4 km/h (1 Bft) O-NO 2,2 C 10,1 C 11,0 km/h (2 Bft)
22.12.2016 15:00 9,0 C 59 % 1031,7 hPa 0,0 l/m 1,8 km/h (1 Bft) SO 1,3 C 9,0 C 4,5 km/h (1 Bft)
22.12.2016 16:00 4,6 C 74 % 1032,0 hPa 0,0 l/m 0,1 km/h (0 Bft) SO 0,5 C 4,6 C 1,1 km/h (0 Bft)
22.12.2016 17:00 2,0 C 84 % 1032,5 hPa 0,0 l/m 0,2 km/h (0 Bft) SO -0,4 C 2,0 C 0,8 km/h (0 Bft)
22.12.2016 18:00 1,6 C 87 % 1032,7 hPa 0,0 l/m 0,2 km/h (0 Bft) SO -0,4 C 1,6 C 1,1 km/h (1 Bft)
22.12.2016 19:00 1,8 C 88 % 1033,0 hPa 0,0 l/m 0,4 km/h (0 Bft) SO 0,0 C 1,8 C 1,6 km/h (1 Bft)
22.12.2016 20:00 1,9 C 87 % 1033,3 hPa 0,0 l/m 0,4 km/h (0 Bft) S 0,1 C 1,9 C 2,1 km/h (1 Bft)
22.12.2016 21:00 2,8 C 88 % 1033,5 hPa 0,0 l/m 1,2 km/h (1 Bft) NO 1,1 C 2,8 C 4,7 km/h (1 Bft)
22.12.2016 22:00 5,1 C 85 % 1033,6 hPa 0,0 l/m 4,0 km/h (1 Bft) O-NO 2,8 C 5,1 C 11,1 km/h (2 Bft)
22.12.2016 23:00 5,6 C 87 % 1034,0 hPa 0,0 l/m 4,2 km/h (1 Bft) O-NO 3,6 C 5,6 C 12,2 km/h (2 Bft)
23.12.2016 00:00 5,0 C 92 % 1034,1 hPa 0,0 l/m 3,0 km/h (1 Bft) O 3,9 C 5,0 C 6,7 km/h (2 Bft)
23.12.2016 01:00 4,6 C 95 % 1034,4 hPa 0,0 l/m 1,1 km/h (1 Bft) O-NO 3,8 C 4,6 C 4,0 km/h (1 Bft)
23.12.2016 02:00 4,3 C 95 % 1034,5 hPa 0,0 l/m 0,3 km/h (0 Bft) N-NO 3,7 C 4,3 C 1,9 km/h (1 Bft)
23.12.2016 03:00 4,1 C 96 % 1034,9 hPa 0,0 l/m 0,3 km/h (0 Bft) N-NO 3,5 C 4,1 C 1,5 km/h (1 Bft)
23.12.2016 04:00 4,0 C 96 % 1035,0 hPa 0,0 l/m 0,4 km/h (0 Bft) O-NO 3,5 C 4,0 C 2,3 km/h (1 Bft)
23.12.2016 05:00 3,9 C 96 % 1035,3 hPa 0,0 l/m 0,2 km/h (0 Bft) N 3,3 C 3,9 C 1,1 km/h (1 Bft)
23.12.2016 06:00 3,7 C 96 % 1035,7 hPa 0,0 l/m 0,1 km/h (0 Bft) S 3,1 C 3,7 C 0,5 km/h (0 Bft)
23.12.2016 07:00 3,4 C 97 % 1036,2 hPa 0,0 l/m 0,1 km/h (0 Bft) S 2,9 C 3,4 C 0,8 km/h (0 Bft)
23.12.2016 08:00 3,1 C 97 % 1036,4 hPa 0,0 l/m 0,2 km/h (0 Bft) S 2,7 C 3,1 C 0,9 km/h (0 Bft)
23.12.2016 09:00 3,3 C 97 % 1036,6 hPa 0,0 l/m 0,2 km/h (0 Bft) S 2,8 C 3,3 C 1,1 km/h (0 Bft)
23.12.2016 10:00 4,1 C 97 % 1036,5 hPa 0,0 l/m 0,3 km/h (0 Bft) S 3,7 C 4,1 C 1,5 km/h (1 Bft)
23.12.2016 11:00 5,2 C 91 % 1036,0 hPa 0,0 l/m 1,1 km/h (0 Bft) W-SW 3,9 C 5,2 C 2,8 km/h (1 Bft)
23.12.2016 12:00 6,2 C 85 % 1035,4 hPa 0,0 l/m 1,8 km/h (1 Bft) N-NW 3,9 C 6,2 C 3,8 km/h (1 Bft)
23.12.2016 13:00 7,4 C 77 % 1034,3 hPa 0,0 l/m 1,4 km/h (1 Bft) O 3,7 C 7,4 C 4,1 km/h (1 Bft)
23.12.2016 14:00 7,0 C 78 % 1033,3 hPa 0,0 l/m 1,4 km/h (1 Bft) NO 3,4 C 7,0 C 3,7 km/h (1 Bft)
23.12.2016 15:00 6,6 C 82 % 1032,8 hPa 0,0 l/m 1,3 km/h (1 Bft) NO 3,7 C 6,6 C 4,3 km/h (1 Bft)
23.12.2016 16:00 6,1 C 85 % 1032,7 hPa 0,0 l/m 2,5 km/h (1 Bft) O 3,7 C 6,1 C 6,5 km/h (2 Bft)
23.12.2016 17:00 5,2 C 88 % 1032,5 hPa 0,0 l/m 2,7 km/h (1 Bft) O 3,4 C 5,2 C 5,7 km/h (2 Bft)
23.12.2016 18:00 4,8 C 90 % 1032,3 hPa 0,0 l/m 2,9 km/h (1 Bft) NO 3,3 C 4,8 C 6,5 km/h (2 Bft)
23.12.2016 19:00 4,5 C 91 % 1032,2 hPa 0,0 l/m 2,6 km/h (1 Bft) NO 3,2 C 4,5 C 6,6 km/h (2 Bft)
23.12.2016 20:00 4,2 C 92 % 1032,0 hPa 0,0 l/m 1,3 km/h (1 Bft) NO 3,1 C 4,2 C 4,1 km/h (1 Bft)
23.12.2016 21:00 4,3 C 94 % 1031,9 hPa 0,0 l/m 0,8 km/h (0 Bft) NO 3,4 C 4,3 C 3,1 km/h (1 Bft)
23.12.2016 22:00 4,7 C 94 % 1031,6 hPa 0,0 l/m 3,1 km/h (1 Bft) O-NO 3,8 C 4,7 C 8,6 km/h (2 Bft)
23.12.2016 23:00 4,7 C 94 % 1031,1 hPa 0,0 l/m 5,2 km/h (1 Bft) NO 3,8 C 4,7 C 13,3 km/h (3 Bft)
24.12.2016 00:00 4,8 C 92 % 1030,7 hPa 0,0 l/m 5,3 km/h (1 Bft) O-NO 3,6 C 4,4 C 11,0 km/h (2 Bft)
24.12.2016 01:00 4,2 C 92 % 1031,1 hPa 0,0 l/m 7,0 km/h (2 Bft) O-NO 2,9 C 3,3 C 17,3 km/h (3 Bft)
24.12.2016 02:00 3,9 C 91 % 1031,3 hPa 0,0 l/m 6,8 km/h (2 Bft) O-NO 2,6 C 3,1 C 18,6 km/h (3 Bft)
24.12.2016 03:00 3,8 C 90 % 1031,1 hPa 0,0 l/m 6,0 km/h (2 Bft) O 2,2 C 3,5 C 15,7 km/h (3 Bft)
24.12.2016 04:00 3,7 C 89 % 1030,8 hPa 0,0 l/m 6,8 km/h (2 Bft) NO 2,1 C 3,1 C 15,8 km/h (3 Bft)
24.12.2016 05:00 4,1 C 88 % 1030,4 hPa 0,0 l/m 7,5 km/h (2 Bft) NO 2,3 C 2,8 C 16,5 km/h (3 Bft)
24.12.2016 06:00 4,2 C 88 % 1030,1 hPa 0,0 l/m 7,3 km/h (2 Bft) O-NO 2,4 C 3,2 C 15,8 km/h (3 Bft)
24.12.2016 07:00 4,6 C 86 % 1029,8 hPa 0,0 l/m 8,9 km/h (2 Bft) NO 2,5 C 2,5 C 19,7 km/h (3 Bft)
24.12.2016 08:00 5,0 C 86 % 1030,3 hPa 0,0 l/m 8,2 km/h (2 Bft) O-NO 2,9 C 3,5 C 19,4 km/h (3 Bft)
24.12.2016 09:00 4,8 C 91 % 1030,8 hPa 0,3 l/m 5,8 km/h (2 Bft) O-NO 3,5 C 4,6 C 15,3 km/h (3 Bft)
24.12.2016 10:00 4,7 C 95 % 1030,3 hPa 0,3 l/m 5,8 km/h (2 Bft) NO 4,0 C 4,5 C 14,1 km/h (3 Bft)
24.12.2016 11:00 5,3 C 95 % 1030,4 hPa 0,3 l/m 3,7 km/h (1 Bft) O-NO 4,5 C 5,3 C 9,7 km/h (2 Bft)
24.12.2016 12:00 5,5 C 95 % 1030,0 hPa 0,3 l/m 5,5 km/h (2 Bft) O-NO 4,8 C 5,4 C 12,4 km/h (2 Bft)
24.12.2016 13:00 5,5 C 95 % 1030,0 hPa 0,8 l/m 3,7 km/h (1 Bft) O-NO 4,7 C 5,5 C 10,2 km/h (2 Bft)
24.12.2016 14:00 5,9 C 93 % 1029,8 hPa 0,3 l/m 6,3 km/h (2 Bft) O-NO 4,8 C 5,3 C 16,2 km/h (3 Bft)
24.12.2016 15:00 5,9 C 91 % 1030,5 hPa 0,0 l/m 7,1 km/h (2 Bft) NO 4,4 C 5,2 C 16,2 km/h (3 Bft)
24.12.2016 16:00 5,5 C 89 % 1031,0 hPa 0,0 l/m 6,0 km/h (2 Bft) O-NO 3,8 C 5,2 C 15,4 km/h (3 Bft)
24.12.2016 17:00 5,2 C 87 % 1031,4 hPa 0,0 l/m 3,8 km/h (1 Bft) O 3,2 C 5,1 C 9,4 km/h (2 Bft)
24.12.2016 18:00 5,0 C 86 % 1031,6 hPa 0,0 l/m 2,9 km/h (1 Bft) O-NO 3,0 C 5,0 C 7,8 km/h (2 Bft)
24.12.2016 19:00 5,2 C 85 % 1031,9 hPa 0,0 l/m 5,0 km/h (1 Bft) NO 2,8 C 5,1 C 14,1 km/h (3 Bft)
24.12.2016 20:00 5,2 C 82 % 1031,7 hPa 0,0 l/m 5,8 km/h (2 Bft) O-NO 2,3 C 4,7 C 17,6 km/h (3 Bft)
24.12.2016 21:00 5,0 C 84 % 1031,7 hPa 0,0 l/m 3,4 km/h (1 Bft) O 2,5 C 5,0 C 10,2 km/h (2 Bft)
24.12.2016 22:00 4,9 C 84 % 1031,8 hPa 0,0 l/m 4,7 km/h (1 Bft) NO 2,4 C 4,9 C 12,2 km/h (2 Bft)
24.12.2016 23:00 4,7 C 84 % 1032,0 hPa 0,0 l/m 3,7 km/h (1 Bft) O 2,3 C 4,7 C 10,9 km/h (2 Bft)
25.12.2016 00:00 4,8 C 84 % 1031,8 hPa 0,0 l/m 4,8 km/h (1 Bft) O-NO 2,3 C 4,7 C 11,2 km/h (2 Bft)
25.12.2016 01:00 4,8 C 85 % 1031,1 hPa 0,0 l/m 4,8 km/h (1 Bft) O-NO 2,4 C 4,7 C 12,0 km/h (2 Bft)
25.12.2016 02:00 4,8 C 84 % 1031,3 hPa 0,0 l/m 4,1 km/h (1 Bft) O-NO 2,3 C 4,8 C 10,2 km/h (2 Bft)
25.12.2016 03:00 4,8 C 85 % 1031,4 hPa 0,0 l/m 4,2 km/h (1 Bft) O 2,5 C 4,8 C 12,6 km/h (3 Bft)
25.12.2016 04:00 4,7 C 86 % 1030,9 hPa 0,0 l/m 3,3 km/h (1 Bft) NO 2,6 C 4,7 C 9,4 km/h (2 Bft)
25.12.2016 05:00 4,6 C 88 % 1030,5 hPa 0,0 l/m 5,8 km/h (2 Bft) O 2,8 C 4,3 C 12,9 km/h (3 Bft)
25.12.2016 06:00 4,6 C 87 % 1030,6 hPa 0,0 l/m 6,2 km/h (2 Bft) NO 2,7 C 4,1 C 14,7 km/h (3 Bft)
25.12.2016 07:00 4,7 C 86 % 1030,9 hPa 0,0 l/m 4,9 km/h (1 Bft) NO 2,6 C 4,6 C 14,1 km/h (3 Bft)
25.12.2016 08:00 4,7 C 86 % 1030,9 hPa 0,0 l/m 5,9 km/h (2 Bft) N-NO 2,6 C 4,3 C 14,4 km/h (3 Bft)
25.12.2016 09:00 4,8 C 86 % 1031,3 hPa 0,0 l/m 6,9 km/h (2 Bft) NO 2,7 C 4,1 C 17,7 km/h (3 Bft)
25.12.2016 10:00 5,3 C 85 % 1031,0 hPa 0,0 l/m 9,8 km/h (2 Bft) O-NO 2,9 C 2,6 C 22,5 km/h (4 Bft)
25.12.2016 11:00 6,1 C 83 % 1030,7 hPa 0,0 l/m 11,1 km/h (2 Bft) O-NO 3,4 C 2,6 C 24,5 km/h (4 Bft)
25.12.2016 12:00 7,2 C 80 % 1029,8 hPa 0,0 l/m 13,3 km/h (3 Bft) O 4,0 C 2,6 C 26,4 km/h (4 Bft)
25.12.2016 13:00 7,7 C 79 % 1029,6 hPa 0,0 l/m 7,3 km/h (2 Bft) NO 4,2 C 6,7 C 17,6 km/h (3 Bft)
25.12.2016 14:00 7,4 C 80 % 1029,5 hPa 0,0 l/m 5,1 km/h (1 Bft) O-SO 4,1 C 7,2 C 13,4 km/h (3 Bft)
25.12.2016 15:00 6,9 C 82 % 1029,6 hPa 0,0 l/m 5,6 km/h (2 Bft) O-NO 4,0 C 6,7 C 15,3 km/h (3 Bft)
25.12.2016 16:00 6,6 C 84 % 1029,8 hPa 0,0 l/m 5,4 km/h (1 Bft) O-NO 4,0 C 6,3 C 13,7 km/h (3 Bft)
25.12.2016 17:00 6,0 C 85 % 1030,0 hPa 0,0 l/m 3,0 km/h (1 Bft) O-NO 3,7 C 6,0 C 7,1 km/h (2 Bft)
25.12.2016 18:00 5,8 C 86 % 1030,1 hPa 0,0 l/m 3,8 km/h (1 Bft) O 3,7 C 5,9 C 9,3 km/h (2 Bft)
25.12.2016 19:00 5,5 C 88 % 1030,2 hPa 0,0 l/m 1,6 km/h (1 Bft) O-NO 3,6 C 5,5 C 5,6 km/h (2 Bft)
25.12.2016 20:00 6,1 C 86 % 1030,1 hPa 0,0 l/m 5,8 km/h (2 Bft) O 3,9 C 5,8 C 14,4 km/h (3 Bft)
25.12.2016 21:00 6,3 C 84 % 1030,1 hPa 0,0 l/m 6,9 km/h (2 Bft) O 3,8 C 5,7 C 16,4 km/h (3 Bft)
25.12.2016 22:00 6,1 C 84 % 1030,2 hPa 0,0 l/m 7,5 km/h (2 Bft) O-NO 3,6 C 5,1 C 17,8 km/h (3 Bft)
25.12.2016 23:00 5,4 C 86 % 1030,3 hPa 0,0 l/m 5,0 km/h (1 Bft) O-NO 3,3 C 5,4 C 12,9 km/h (3 Bft)
Min-Datum _ 21.12.16 22.12.16 20.12.16 - 23.12.16 - 21.12.16 21.12.16 23.12.16
_ Min-Zeit 08:25 15:05 14:25 - 21:25 - 08:25 08:25 21:25
Minimum _ -5,9 C 55 % 1021,9 hPa - 0,0 km/h (0 Bft) - -6,6 C -5,9 C 0,0 km/h (0 Bft)
Max-Datum _ 22.12.16 23.12.16 23.12.16 24.12.16 25.12.16 - 24.12.16 22.12.16 25.12.16
_ Max-Zeit 14:05 09:35 10:00 13:00 12:06 - 14:35 14:05 11:35
Maximum _ 10,3 C 98 % 1036,7 hPa 0,8 l/m 17,7 km/h
O (3 Bft)
- 5,0 C 10,3 C 37,0 km/h
O (5 Bft)
Durchschnitt _ 1,9 C 90 % 1029,7 hPa #2,5 l/m 2,6 km/h (1 Bft) O-NO 0,3 C 1,7 C 6,9 km/h (2 Bft)